createdAt,value
2023-01-15T00:00:30.607Z,10.12
2023-01-15T00:01:30.630Z,10.10
2023-01-15T00:02:30.698Z,10.09
2023-01-15T00:03:30.618Z,10.02
2023-01-15T00:04:30.575Z,9.97
2023-01-15T00:05:30.549Z,9.97
2023-01-15T00:06:30.577Z,10.10
2023-01-15T00:07:30.547Z,10.01
2023-01-15T00:08:30.563Z,10.04
2023-01-15T00:09:30.520Z,10.02
2023-01-15T00:10:30.526Z,10.09
2023-01-15T00:11:30.516Z,10.04
2023-01-15T00:12:30.509Z,9.99
2023-01-15T00:13:30.521Z,10.07
2023-01-15T00:14:30.497Z,9.98
2023-01-15T00:15:30.479Z,9.99
2023-01-15T00:16:30.445Z,9.98
2023-01-15T00:17:30.476Z,10.07
2023-01-15T00:18:30.440Z,10.12
2023-01-15T00:19:30.446Z,10.10
2023-01-15T00:20:30.429Z,10.07
2023-01-15T00:21:30.420Z,10.07
2023-01-15T00:22:30.449Z,10.12
2023-01-15T00:23:30.447Z,10.07
2023-01-15T00:24:30.425Z,10.12
2023-01-15T00:25:30.387Z,10.22
2023-01-15T00:26:30.425Z,10.10
2023-01-15T00:27:30.386Z,10.07
2023-01-15T00:28:30.382Z,10.10
2023-01-15T00:29:30.443Z,10.13
2023-01-15T00:30:30.385Z,10.09
2023-01-15T00:31:30.458Z,10.15
2023-01-15T00:32:30.399Z,10.13
2023-01-15T00:33:30.341Z,10.12
2023-01-15T00:34:30.463Z,10.19
2023-01-15T00:35:31.372Z,10.19
2023-01-15T00:36:30.355Z,10.25
2023-01-15T00:37:30.284Z,10.22
2023-01-15T00:38:30.289Z,10.25
2023-01-15T00:39:30.308Z,10.17
2023-01-15T00:40:30.307Z,10.25
2023-01-15T00:41:30.332Z,10.25
2023-01-15T00:42:30.398Z,10.37
2023-01-15T00:43:30.287Z,10.25
2023-01-15T00:44:30.286Z,10.33
2023-01-15T00:45:30.273Z,10.31
2023-01-15T00:46:30.268Z,10.35
2023-01-15T00:47:30.273Z,10.38
2023-01-15T00:48:30.225Z,10.37
2023-01-15T00:49:30.281Z,10.35
2023-01-15T00:50:30.201Z,10.35
2023-01-15T00:51:31.199Z,10.33
2023-01-15T00:52:30.178Z,10.37
2023-01-15T00:53:30.163Z,10.38
2023-01-15T00:54:30.181Z,10.33
2023-01-15T00:55:30.185Z,10.34
2023-01-15T00:56:30.150Z,10.33
2023-01-15T00:57:30.196Z,10.33
2023-01-15T00:58:30.124Z,10.26
2023-01-15T00:59:30.118Z,10.26
2023-01-15T01:00:30.219Z,10.30
2023-01-15T01:01:30.248Z,10.28
2023-01-15T01:02:30.156Z,10.25
2023-01-15T01:03:30.109Z,10.26
2023-01-15T01:04:30.102Z,10.19
2023-01-15T01:05:30.134Z,10.23
2023-01-15T01:06:30.157Z,10.20
2023-01-15T01:07:30.158Z,10.19
2023-01-15T01:08:30.122Z,10.22
2023-01-15T01:09:30.143Z,10.17
2023-01-15T01:10:30.042Z,10.16
2023-01-15T01:11:30.008Z,10.25
2023-01-15T01:12:30.067Z,10.26
2023-01-15T01:13:30.025Z,10.22
2023-01-15T01:14:30.038Z,10.22
2023-01-15T01:15:30.062Z,10.22
2023-01-15T01:16:30.120Z,10.20
2023-01-15T01:17:30.004Z,10.23
2023-01-15T01:18:30.013Z,10.22
2023-01-15T01:19:29.979Z,10.22
2023-01-15T01:20:29.975Z,10.16
2023-01-15T01:21:30.011Z,10.04
2023-01-15T01:22:29.993Z,10.01
2023-01-15T01:23:29.966Z,9.95
2023-01-15T01:24:30.032Z,9.86
2023-01-15T01:25:30.004Z,9.86
2023-01-15T01:26:29.907Z,9.79
2023-01-15T01:27:29.966Z,9.82
2023-01-15T01:28:29.944Z,9.76
2023-01-15T01:29:29.925Z,9.69
2023-01-15T01:30:29.903Z,9.62
2023-01-15T01:31:29.904Z,9.66
2023-01-15T01:33:04.485Z,9.56
2023-01-15T01:33:30.957Z,9.59
2023-01-15T01:34:29.928Z,9.51
2023-01-15T01:35:30.406Z,9.46
2023-01-15T01:36:29.834Z,9.54
2023-01-15T01:37:29.855Z,9.48
2023-01-15T01:38:29.888Z,9.46
2023-01-15T01:39:30.329Z,9.47
2023-01-15T01:40:29.870Z,9.41
2023-01-15T01:41:29.792Z,9.34
2023-01-15T01:42:29.854Z,9.41
2023-01-15T01:43:29.804Z,9.36
2023-01-15T01:44:29.824Z,9.32
2023-01-15T01:45:29.867Z,9.22
2023-01-15T01:46:29.767Z,9.22
2023-01-15T01:47:29.926Z,9.22
2023-01-15T01:48:29.758Z,9.26
2023-01-15T01:49:29.801Z,9.22
2023-01-15T01:50:29.799Z,9.11
2023-01-15T01:51:30.690Z,9.06
2023-01-15T01:52:29.720Z,9.06
2023-01-15T01:53:29.718Z,9.03
2023-01-15T01:54:29.748Z,9.06
2023-01-15T01:55:29.834Z,9.16
2023-01-15T01:56:29.676Z,9.03
2023-01-15T01:57:29.686Z,9.11
2023-01-15T01:58:29.695Z,9.08
2023-01-15T01:59:29.660Z,9.10
2023-01-15T02:00:29.804Z,9.02
2023-01-15T02:01:29.796Z,9.00
2023-01-15T02:02:29.770Z,9.06
2023-01-15T02:03:29.677Z,8.99
2023-01-15T02:04:29.629Z,8.94
2023-01-15T02:05:29.600Z,8.92
2023-01-15T02:06:29.590Z,8.97
2023-01-15T02:07:29.613Z,8.95
2023-01-15T02:09:04.265Z,8.97
2023-01-15T02:09:29.768Z,8.95
2023-01-15T02:10:29.647Z,9.02
2023-01-15T02:11:29.565Z,9.04
2023-01-15T02:12:29.569Z,8.94
2023-01-15T02:14:02.260Z,8.91
2023-01-15T02:14:29.894Z,8.88
2023-01-15T02:16:02.352Z,8.82
2023-01-15T02:16:29.901Z,8.79
2023-01-15T02:18:02.325Z,8.76
2023-01-15T02:18:29.547Z,8.70
2023-01-15T02:19:29.870Z,8.76
2023-01-15T02:20:29.506Z,8.70
2023-01-15T02:21:29.596Z,8.74
2023-01-15T02:22:29.509Z,8.69
2023-01-15T02:23:29.724Z,8.61
2023-01-15T02:24:29.495Z,8.66
2023-01-15T02:26:03.132Z,8.56
2023-01-15T02:27:01.985Z,8.44
2023-01-15T02:27:29.453Z,8.42
2023-01-15T02:29:01.872Z,8.45
2023-01-15T02:29:29.563Z,8.36
2023-01-15T02:31:01.971Z,8.36
2023-01-15T02:32:02.037Z,8.41
2023-01-15T02:32:29.398Z,8.38
2023-01-15T02:34:01.910Z,8.28
2023-01-15T02:34:29.509Z,8.31
2023-01-15T02:35:29.581Z,8.33
2023-01-15T02:36:29.404Z,8.23
2023-01-15T02:37:29.369Z,8.20
2023-01-15T02:38:29.407Z,8.28
2023-01-15T02:39:29.377Z,8.24
2023-01-15T02:40:29.420Z,8.13
2023-01-15T02:41:29.319Z,8.16
2023-01-15T02:42:30.327Z,8.10
2023-01-15T02:43:29.353Z,8.05
2023-01-15T02:45:01.277Z,8.00
2023-01-15T02:45:29.377Z,8.01
2023-01-15T02:46:29.288Z,8.03
2023-01-15T02:47:29.397Z,7.95
2023-01-15T02:48:29.256Z,7.93
2023-01-15T02:49:29.260Z,7.91
2023-01-15T02:50:29.241Z,7.79
2023-01-15T02:51:29.272Z,7.76
2023-01-15T02:52:29.211Z,7.77
2023-01-15T02:53:29.225Z,7.70
2023-01-15T02:54:29.204Z,7.69
2023-01-15T02:55:29.227Z,7.79
2023-01-15T02:56:29.187Z,7.82
2023-01-15T02:57:29.196Z,7.73
2023-01-15T02:58:29.175Z,7.77
2023-01-15T02:59:29.159Z,7.70
2023-01-15T03:00:29.164Z,7.67
2023-01-15T03:01:29.395Z,7.63
2023-01-15T03:02:29.204Z,7.67
2023-01-15T03:03:29.146Z,7.58
2023-01-15T03:04:29.142Z,7.57
2023-01-15T03:05:29.121Z,7.50
2023-01-15T03:06:29.100Z,7.50
2023-01-15T03:07:29.131Z,7.58
2023-01-15T03:08:29.162Z,7.50
2023-01-15T03:09:29.086Z,7.51
2023-01-15T03:10:29.101Z,7.45
2023-01-15T03:11:29.153Z,7.48
2023-01-15T03:12:29.047Z,7.50
2023-01-15T03:13:29.140Z,7.45
2023-01-15T03:14:29.067Z,7.42
2023-01-15T03:15:29.044Z,7.43
2023-01-15T03:16:29.072Z,7.50
2023-01-15T03:17:29.016Z,7.42
2023-01-15T03:18:29.140Z,7.48
2023-01-15T03:19:29.066Z,7.48
2023-01-15T03:20:29.000Z,7.38
2023-01-15T03:21:29.026Z,7.51
2023-01-15T03:22:28.982Z,7.36
2023-01-15T03:23:28.975Z,7.45
2023-01-15T03:24:29.019Z,7.33
2023-01-15T03:25:29.045Z,7.35
2023-01-15T03:26:28.961Z,7.43
2023-01-15T03:27:28.997Z,7.35
2023-01-15T03:28:28.947Z,7.47
2023-01-15T03:29:28.930Z,7.36
2023-01-15T03:30:29.996Z,7.42
2023-01-15T03:31:28.921Z,7.42
2023-01-15T03:32:28.924Z,7.28
2023-01-15T03:33:28.951Z,7.38
2023-01-15T03:34:28.918Z,7.40
2023-01-15T03:35:28.876Z,7.33
2023-01-15T03:36:28.901Z,7.39
2023-01-15T03:37:28.944Z,7.36
2023-01-15T03:38:28.901Z,7.35
2023-01-15T03:39:28.850Z,7.35
2023-01-15T03:40:28.860Z,7.23
2023-01-15T03:42:01.495Z,7.23
2023-01-15T03:42:28.848Z,7.24
2023-01-15T03:43:28.813Z,7.24
2023-01-15T03:44:28.834Z,7.21
2023-01-15T03:45:28.832Z,7.24
2023-01-15T03:46:28.924Z,7.28
2023-01-15T03:47:28.834Z,7.18
2023-01-15T04:03:15.925Z,6.66
2023-01-15T04:04:15.938Z,6.59
2023-01-15T04:05:17.027Z,6.59
2023-01-15T04:06:17.041Z,6.67
2023-01-15T04:07:17.032Z,6.60
2023-01-15T04:08:18.053Z,6.63
2023-01-15T04:09:18.012Z,6.60
2023-01-15T04:10:17.017Z,6.54
2023-01-15T04:11:16.974Z,6.48
2023-01-15T04:12:16.996Z,6.49
2023-01-15T04:13:17.031Z,6.38
2023-01-15T04:14:17.094Z,6.35
2023-01-15T04:15:17.002Z,6.41
2023-01-15T04:16:17.048Z,6.30
2023-01-15T04:17:16.961Z,6.24
2023-01-15T04:18:16.957Z,6.16
2023-01-15T04:19:17.090Z,6.12
2023-01-15T04:20:16.923Z,6.16
2023-01-15T04:21:17.012Z,6.11
2023-01-15T04:22:16.966Z,6.08
2023-01-15T04:23:16.926Z,6.04
2023-01-15T04:24:16.953Z,5.99
2023-01-15T04:25:17.079Z,5.91
2023-01-15T04:26:16.962Z,5.97
2023-01-15T04:27:16.866Z,5.90
2023-01-15T04:28:16.912Z,5.91
2023-01-15T04:29:16.879Z,5.86
2023-01-15T04:30:16.900Z,5.90
2023-01-15T04:31:16.886Z,5.89
2023-01-15T04:32:16.829Z,5.76
2023-01-15T04:33:16.865Z,5.76
2023-01-15T04:34:16.814Z,5.80
2023-01-15T04:35:16.859Z,5.73
2023-01-15T04:36:16.898Z,5.76
2023-01-15T04:37:16.916Z,5.65
2023-01-15T04:38:16.804Z,5.76
2023-01-15T04:39:16.770Z,5.69
2023-01-15T04:40:16.772Z,5.62
2023-01-15T04:41:16.797Z,5.64
2023-01-15T04:42:16.754Z,5.72
2023-01-15T04:43:16.768Z,5.68
2023-01-15T04:44:16.746Z,5.57
2023-01-15T04:45:16.840Z,5.56
2023-01-15T04:46:16.809Z,5.53
2023-01-15T04:47:16.752Z,5.54
2023-01-15T04:48:16.789Z,5.56
2023-01-15T04:49:16.692Z,5.61
2023-01-15T04:50:16.791Z,5.59
2023-01-15T04:51:16.721Z,5.46
2023-01-15T04:52:16.681Z,5.48
2023-01-15T04:53:16.677Z,5.50
2023-01-15T04:54:16.682Z,5.47
2023-01-15T04:55:16.659Z,5.48
2023-01-15T04:56:16.625Z,5.51
2023-01-15T04:57:17.697Z,5.47
2023-01-15T04:58:16.695Z,5.57
2023-01-15T04:59:16.678Z,5.46
2023-01-15T05:00:16.720Z,5.43
2023-01-15T05:01:16.685Z,5.47
2023-01-15T05:02:16.783Z,5.39
2023-01-15T05:03:16.653Z,5.41
2023-01-15T05:04:16.657Z,5.41
2023-01-15T05:05:16.704Z,5.39
2023-01-15T05:06:16.598Z,5.43
2023-01-15T05:07:16.568Z,5.39
2023-01-15T05:08:16.613Z,5.47
2023-01-15T05:09:16.553Z,5.41
2023-01-15T05:10:16.627Z,5.38
2023-01-15T05:11:16.527Z,5.28
2023-01-15T05:12:16.639Z,5.35
2023-01-15T05:13:16.601Z,5.36
2023-01-15T05:14:16.612Z,5.36
2023-01-15T05:15:16.553Z,5.28
2023-01-15T05:16:16.633Z,5.30
2023-01-15T05:17:16.552Z,5.32
2023-01-15T05:18:16.586Z,5.28
2023-01-15T05:19:16.512Z,5.28
2023-01-15T05:20:16.543Z,5.26
2023-01-15T05:21:16.551Z,5.18
2023-01-15T05:22:17.170Z,5.25
2023-01-15T05:23:16.487Z,5.20
2023-01-15T05:24:16.579Z,5.18
2023-01-15T05:25:17.252Z,5.08
2023-01-15T05:26:16.521Z,5.15
2023-01-15T05:27:16.475Z,5.20
2023-01-15T05:28:16.495Z,5.12
2023-01-15T05:29:16.462Z,5.00
2023-01-15T05:30:16.505Z,5.12
2023-01-15T05:31:16.572Z,5.14
2023-01-15T05:32:16.505Z,5.05
2023-01-15T05:33:17.163Z,5.10
2023-01-15T05:34:16.497Z,5.02
2023-01-15T05:35:16.589Z,5.08
2023-01-15T05:36:16.518Z,5.00
2023-01-15T05:37:16.502Z,5.02
2023-01-15T05:38:16.369Z,5.10
2023-01-15T05:39:16.466Z,5.07
2023-01-15T05:40:16.379Z,4.99
2023-01-15T05:41:17.812Z,5.00
2023-01-15T05:42:16.427Z,5.05
2023-01-15T05:43:16.347Z,5.05
2023-01-15T05:44:16.549Z,5.05
2023-01-15T05:45:16.513Z,5.00
2023-01-15T05:46:17.395Z,4.99
2023-01-15T05:47:17.293Z,4.99
2023-01-15T05:48:16.461Z,5.00
2023-01-15T05:49:16.477Z,5.00
2023-01-15T05:50:17.267Z,4.99
2023-01-15T05:51:16.301Z,4.97
2023-01-15T05:52:18.976Z,5.04
2023-01-15T05:53:17.342Z,5.04
2023-01-15T05:54:16.407Z,5.00
2023-01-15T05:55:17.496Z,5.02
2023-01-15T05:56:16.347Z,5.02
2023-01-15T05:57:16.462Z,5.05
2023-01-15T05:58:16.504Z,5.00
2023-01-15T05:59:17.485Z,4.97
2023-01-15T06:00:16.198Z,4.97
2023-01-15T06:01:16.398Z,4.97
2023-01-15T06:02:16.615Z,4.99
2023-01-15T06:03:16.447Z,5.04
2023-01-15T06:04:17.977Z,5.04
2023-01-15T06:05:16.985Z,4.92
2023-01-15T06:06:16.211Z,4.94
2023-01-15T06:07:17.520Z,4.92
2023-01-15T06:08:16.272Z,4.96
2023-01-15T06:09:16.242Z,4.97
2023-01-15T06:10:16.331Z,4.93
2023-01-15T06:11:16.978Z,4.89
2023-01-15T06:12:16.324Z,4.94
2023-01-15T06:13:18.058Z,4.93
2023-01-15T06:14:16.309Z,4.78
2023-01-15T06:15:16.253Z,4.82
2023-01-15T06:16:16.895Z,4.82
2023-01-15T06:17:16.283Z,4.86
2023-01-15T06:18:16.239Z,4.89
2023-01-15T06:19:16.860Z,4.73
2023-01-15T06:20:16.682Z,4.89
2023-01-15T06:21:16.019Z,4.75
2023-01-15T06:22:16.817Z,4.74
2023-01-15T06:23:16.814Z,4.67
2023-01-15T06:24:17.371Z,4.71
2023-01-15T06:25:16.149Z,4.93
2023-01-15T06:26:16.243Z,4.74
2023-01-15T06:27:16.799Z,4.87
2023-01-15T06:28:17.170Z,4.86
2023-01-15T06:29:16.130Z,4.89
2023-01-15T06:30:16.784Z,4.80
2023-01-15T06:31:16.591Z,4.70
2023-01-15T06:32:16.826Z,4.68
2023-01-15T06:33:16.103Z,4.68
2023-01-15T06:34:16.104Z,4.75
2023-01-15T06:35:16.494Z,4.74
2023-01-15T06:36:16.885Z,4.78
2023-01-15T06:37:16.113Z,4.80
2023-01-15T06:38:16.240Z,4.68
2023-01-15T06:39:15.908Z,4.71
2023-01-15T06:40:16.043Z,4.75
2023-01-15T06:41:15.900Z,4.71
2023-01-15T06:42:15.889Z,4.77
2023-01-15T06:43:15.857Z,4.60
2023-01-15T06:44:15.852Z,4.75
2023-01-15T06:45:15.839Z,4.78
2023-01-15T06:46:15.878Z,4.75
2023-01-15T06:47:15.944Z,4.71
2023-01-15T06:48:15.812Z,4.74
2023-01-15T06:49:15.798Z,4.74
2023-01-15T06:50:15.834Z,4.73
2023-01-15T06:51:15.859Z,4.73
2023-01-15T06:52:15.789Z,4.77
2023-01-15T06:53:15.841Z,4.67
2023-01-15T06:54:15.850Z,4.74
2023-01-15T06:55:48.496Z,4.73
2023-01-15T06:56:15.991Z,4.82
2023-01-15T06:57:16.525Z,4.74
2023-01-15T06:58:15.838Z,4.78
2023-01-15T06:59:15.754Z,4.73
2023-01-15T07:00:15.769Z,4.78
2023-01-15T07:01:15.838Z,4.73
2023-01-15T07:02:15.724Z,4.68
2023-01-15T07:03:15.735Z,4.75
2023-01-15T07:04:15.740Z,4.77
2023-01-15T07:05:15.731Z,4.71
2023-01-15T07:06:15.697Z,4.63
2023-01-15T07:07:15.694Z,4.74
2023-01-15T07:08:15.651Z,4.70
2023-01-15T07:09:15.690Z,4.71
2023-01-15T07:10:15.708Z,4.77
2023-01-15T07:11:15.644Z,4.67
2023-01-15T07:12:15.670Z,4.60
2023-01-15T07:13:16.635Z,4.59
2023-01-15T07:14:15.674Z,4.66
2023-01-15T07:15:15.651Z,4.59
2023-01-15T07:16:15.700Z,4.60
2023-01-15T07:17:15.610Z,4.68
2023-01-15T07:18:15.596Z,4.63
2023-01-15T07:19:15.773Z,4.66
2023-01-15T07:20:15.636Z,4.66
2023-01-15T07:21:15.605Z,4.73
2023-01-15T07:22:15.604Z,4.70
2023-01-15T07:23:16.815Z,4.59
2023-01-15T07:24:16.608Z,4.71
2023-01-15T07:25:15.570Z,4.70
2023-01-15T07:26:15.522Z,4.67
2023-01-15T07:27:15.511Z,4.59
2023-01-15T07:28:15.515Z,4.71
2023-01-15T07:29:16.218Z,4.67
2023-01-15T07:30:15.553Z,4.66
2023-01-15T07:31:15.650Z,4.67
2023-01-15T07:32:15.502Z,4.62
2023-01-15T07:33:15.491Z,4.58
2023-01-15T07:34:16.462Z,4.68
2023-01-15T07:35:15.491Z,4.67
2023-01-15T07:36:15.522Z,4.67
2023-01-15T07:37:16.488Z,4.68
2023-01-15T07:38:15.492Z,4.77
2023-01-15T07:39:15.515Z,4.71
2023-01-15T07:40:15.463Z,4.74
2023-01-15T07:41:15.471Z,4.75
2023-01-15T07:42:15.394Z,4.70
2023-01-15T07:43:15.449Z,4.75
2023-01-15T07:44:15.386Z,4.63
2023-01-15T07:45:15.475Z,4.70
2023-01-15T07:46:15.447Z,4.80
2023-01-15T07:47:15.477Z,4.73
2023-01-15T07:48:15.390Z,4.74
2023-01-15T07:49:15.386Z,4.75
2023-01-15T07:50:15.368Z,4.75
2023-01-15T07:51:15.332Z,4.70
2023-01-15T07:52:15.412Z,4.70
2023-01-15T07:53:15.350Z,4.71
2023-01-15T07:54:15.336Z,4.75
2023-01-15T07:55:15.341Z,4.82
2023-01-15T07:56:15.344Z,4.71
2023-01-15T07:57:15.295Z,4.70
2023-01-15T07:58:15.312Z,4.68
2023-01-15T07:59:15.289Z,4.78
2023-01-15T08:00:15.293Z,4.77
2023-01-15T08:01:15.492Z,4.71
2023-01-15T08:02:15.291Z,4.74
2023-01-15T08:03:15.315Z,4.78
2023-01-15T08:04:15.346Z,4.86
2023-01-15T08:05:16.016Z,4.77
2023-01-15T08:06:15.558Z,4.82
2023-01-15T08:07:15.352Z,4.75
2023-01-15T08:08:15.449Z,4.67
2023-01-15T08:09:16.169Z,4.74
2023-01-15T08:10:15.338Z,4.73
2023-01-15T08:11:15.220Z,4.78
2023-01-15T08:12:16.261Z,4.80
2023-01-15T08:13:15.766Z,4.80
2023-01-15T08:14:15.343Z,4.84
2023-01-15T08:15:15.237Z,4.87
2023-01-15T08:16:16.283Z,4.74
2023-01-15T08:17:15.148Z,4.90
2023-01-15T08:18:15.117Z,4.92
2023-01-15T08:19:15.118Z,4.90
2023-01-15T08:20:15.144Z,4.94
2023-01-15T08:21:15.095Z,4.74
2023-01-15T08:22:15.122Z,4.87
2023-01-15T08:23:15.072Z,4.87
2023-01-15T08:24:15.162Z,4.90
2023-01-15T08:25:15.107Z,4.80
2023-01-15T08:26:15.274Z,4.82
2023-01-15T08:27:15.079Z,4.82
2023-01-15T08:28:15.054Z,4.93
2023-01-15T08:29:47.445Z,4.90
2023-01-15T08:30:15.042Z,4.97
2023-01-15T08:31:15.046Z,4.89
2023-01-15T08:32:15.056Z,4.97
2023-01-15T08:33:15.040Z,4.97
2023-01-15T08:34:15.024Z,4.90
2023-01-15T08:35:15.977Z,4.89
2023-01-15T08:36:15.007Z,4.97
2023-01-15T08:37:14.982Z,4.92
2023-01-15T08:38:15.023Z,4.99
2023-01-15T08:39:14.984Z,4.93
2023-01-15T08:40:14.951Z,4.93
2023-01-15T08:41:14.947Z,4.86
2023-01-15T08:42:14.961Z,4.93
2023-01-15T08:43:14.937Z,4.80
2023-01-15T08:44:14.970Z,4.82
2023-01-15T08:45:14.934Z,4.78
2023-01-15T08:46:46.861Z,4.78
2023-01-15T08:47:14.919Z,4.80
2023-01-15T08:48:14.887Z,4.92
2023-01-15T08:49:14.887Z,4.75
2023-01-15T08:50:14.898Z,4.74
2023-01-15T08:51:14.930Z,4.87
2023-01-15T08:52:14.851Z,4.78
2023-01-15T08:53:14.849Z,4.74
2023-01-15T08:54:14.850Z,4.70
2023-01-15T08:55:14.907Z,4.70
2023-01-15T08:56:14.831Z,4.67
2023-01-15T08:57:14.863Z,4.73
2023-01-15T08:58:14.834Z,4.74
2023-01-15T08:59:14.811Z,4.67
2023-01-15T09:00:16.187Z,4.77
2023-01-15T09:01:14.898Z,4.71
2023-01-15T09:02:14.811Z,4.71
2023-01-15T09:03:14.776Z,4.68
2023-01-15T09:04:14.762Z,4.58
2023-01-15T09:05:14.824Z,4.70
2023-01-15T09:06:14.806Z,4.70
2023-01-15T09:07:14.813Z,4.70
2023-01-15T09:08:14.754Z,4.71
2023-01-15T09:09:14.795Z,4.78
2023-01-15T09:10:14.773Z,4.67
2023-01-15T09:11:14.706Z,4.67
2023-01-15T09:12:14.723Z,4.75
2023-01-15T09:13:14.696Z,4.78
2023-01-15T09:14:59.335Z,4.82
2023-01-15T09:15:15.680Z,4.77
2023-01-15T09:16:15.664Z,4.70
2023-01-15T09:17:14.706Z,4.75
2023-01-15T09:18:14.674Z,4.73
2023-01-15T09:19:14.683Z,4.66
2023-01-15T09:20:14.712Z,4.68
2023-01-15T09:21:14.643Z,4.74
2023-01-15T09:22:14.639Z,4.73
2023-01-15T09:23:14.632Z,4.75
2023-01-15T09:24:14.664Z,4.75
2023-01-15T09:25:14.659Z,4.78
2023-01-15T09:26:14.638Z,4.70
2023-01-15T09:27:14.651Z,4.74
2023-01-15T09:28:14.638Z,4.75
2023-01-15T09:29:14.639Z,4.78
2023-01-15T09:30:14.600Z,4.78
2023-01-15T09:31:14.596Z,4.92
2023-01-15T09:32:14.588Z,4.78
2023-01-15T09:33:14.547Z,4.70
2023-01-15T09:34:46.497Z,4.73
2023-01-15T09:35:14.539Z,4.60
2023-01-15T09:36:14.520Z,4.67
2023-01-15T09:37:14.536Z,4.67
2023-01-15T09:38:14.541Z,4.62
2023-01-15T09:39:14.520Z,4.52
2023-01-15T09:40:14.527Z,4.53
2023-01-15T09:41:14.490Z,4.52
2023-01-15T09:42:14.507Z,4.55
2023-01-15T09:43:14.478Z,4.49
2023-01-15T09:44:14.508Z,4.52
2023-01-15T09:45:14.492Z,4.45
2023-01-15T09:46:14.553Z,4.48
2023-01-15T09:47:14.471Z,4.48
2023-01-15T09:48:15.770Z,4.50
2023-01-15T09:49:14.452Z,4.45
2023-01-15T09:50:14.435Z,4.48
2023-01-15T09:51:14.497Z,4.44
2023-01-15T09:52:14.424Z,4.49
2023-01-15T09:53:14.401Z,4.49
2023-01-15T09:54:14.380Z,4.40
2023-01-15T09:55:14.440Z,4.40
2023-01-15T09:56:14.388Z,4.50
2023-01-15T09:57:14.435Z,4.49
2023-01-15T09:58:14.390Z,4.48
2023-01-15T09:59:14.385Z,4.48
2023-01-15T10:00:14.377Z,4.40
2023-01-15T10:01:14.432Z,4.42
2023-01-15T10:02:14.335Z,4.53
2023-01-15T10:03:14.402Z,4.52
2023-01-15T10:04:14.392Z,4.45
2023-01-15T10:05:14.348Z,4.53
2023-01-15T10:06:14.353Z,4.56
2023-01-15T10:07:14.305Z,4.53
2023-01-15T10:08:14.295Z,4.52
2023-01-15T10:09:14.386Z,4.56
2023-01-15T10:10:15.293Z,4.59
2023-01-15T10:11:14.283Z,4.60
2023-01-15T10:12:14.262Z,4.52
2023-01-15T10:13:14.296Z,4.55
2023-01-15T10:14:14.270Z,4.49
2023-01-15T10:15:14.408Z,4.53
2023-01-15T10:16:14.312Z,4.58
2023-01-15T10:17:14.214Z,4.62
2023-01-15T10:18:14.222Z,4.58
2023-01-15T10:19:14.213Z,4.53
2023-01-15T10:20:14.228Z,4.59
2023-01-15T10:21:14.218Z,4.56
2023-01-15T10:22:14.266Z,4.53
2023-01-15T10:23:14.184Z,4.50
2023-01-15T10:24:14.154Z,4.56
2023-01-15T10:25:14.177Z,4.59
2023-01-15T10:26:14.170Z,4.56
2023-01-15T10:27:14.163Z,4.56
2023-01-15T10:28:14.158Z,4.55
2023-01-15T10:29:14.140Z,4.60
2023-01-15T10:30:14.127Z,4.52
2023-01-15T10:31:14.151Z,4.53
2023-01-15T10:32:14.118Z,4.59
2023-01-15T10:33:14.105Z,4.50
2023-01-15T10:34:14.095Z,4.56
2023-01-15T10:35:14.107Z,4.53
2023-01-15T10:36:14.086Z,4.62
2023-01-15T10:37:14.071Z,4.52
2023-01-15T10:38:14.067Z,4.62
2023-01-15T10:39:14.048Z,4.58
2023-01-15T10:40:14.075Z,4.55
2023-01-15T10:41:14.074Z,4.66
2023-01-15T10:42:14.021Z,4.67
2023-01-15T10:43:14.063Z,4.63
2023-01-15T10:44:14.013Z,4.60
2023-01-15T10:45:14.017Z,4.62
2023-01-15T10:46:14.121Z,4.68
2023-01-15T10:47:14.000Z,4.71
2023-01-15T10:48:14.023Z,4.62
2023-01-15T10:49:13.990Z,4.66
2023-01-15T10:50:14.084Z,4.67
2023-01-15T10:51:14.013Z,4.73
2023-01-15T10:52:13.990Z,4.74
2023-01-15T10:53:13.961Z,4.70
2023-01-15T10:54:13.940Z,4.75
2023-01-15T10:55:13.934Z,4.77
2023-01-15T10:56:13.996Z,4.74
2023-01-15T10:57:13.921Z,4.73
2023-01-15T10:58:13.939Z,4.78
2023-01-15T10:59:13.932Z,4.87
2023-01-15T11:00:13.888Z,4.86
2023-01-15T11:01:14.061Z,4.78
2023-01-15T11:02:14.044Z,4.80
2023-01-15T11:03:13.930Z,4.84
2023-01-15T11:04:13.902Z,4.80
2023-01-15T11:05:13.867Z,4.78
2023-01-15T11:06:13.895Z,4.86
2023-01-15T11:07:13.853Z,4.77
2023-01-15T11:08:58.324Z,4.77
2023-01-15T11:09:15.812Z,4.80
2023-01-15T11:10:13.812Z,4.90
2023-01-15T11:11:13.816Z,4.87
2023-01-15T11:12:13.844Z,4.74
2023-01-15T11:13:13.802Z,4.89
2023-01-15T11:14:13.796Z,4.93
2023-01-15T11:15:13.837Z,4.90
2023-01-15T11:16:13.797Z,4.99
2023-01-15T11:17:13.784Z,4.93
2023-01-15T11:18:13.817Z,4.94
2023-01-15T11:19:13.779Z,4.97
2023-01-15T11:20:13.750Z,4.89
2023-01-15T11:21:13.739Z,4.96
2023-01-15T11:22:13.757Z,4.96
2023-01-15T11:23:13.732Z,5.07
2023-01-15T11:24:13.738Z,5.02
2023-01-15T11:25:13.714Z,5.07
2023-01-15T11:26:13.752Z,5.07
2023-01-15T11:27:13.685Z,5.05
2023-01-15T11:28:13.707Z,5.12
2023-01-15T11:29:14.808Z,5.11
2023-01-15T11:30:13.691Z,5.08
2023-01-15T11:31:13.718Z,5.11
2023-01-15T11:32:13.643Z,5.30
2023-01-15T11:33:13.671Z,5.29
2023-01-15T11:34:13.650Z,5.29
2023-01-15T11:35:13.629Z,5.30
2023-01-15T11:36:13.707Z,5.33
2023-01-15T11:37:13.611Z,5.33
2023-01-15T11:38:13.633Z,5.29
2023-01-15T11:39:13.611Z,5.36
2023-01-15T11:40:13.624Z,5.39
2023-01-15T11:41:13.665Z,5.35
2023-01-15T11:42:13.621Z,5.43
2023-01-15T11:43:13.623Z,5.48
2023-01-15T11:44:13.597Z,5.46
2023-01-15T11:45:13.583Z,5.48
2023-01-15T11:46:13.617Z,5.50
2023-01-15T11:47:13.539Z,5.50
2023-01-15T11:48:13.511Z,5.48
2023-01-15T11:49:13.561Z,5.53
2023-01-15T11:50:13.510Z,5.66
2023-01-15T11:51:13.527Z,5.57
2023-01-15T11:52:13.554Z,5.57
2023-01-15T11:53:13.493Z,5.59
2023-01-15T11:54:13.473Z,5.66
2023-01-15T11:55:13.469Z,5.84
2023-01-15T11:56:13.479Z,5.84
2023-01-15T11:57:13.477Z,6.17
2023-01-15T11:58:13.465Z,6.30
2023-01-15T11:59:13.438Z,6.44
2023-01-15T12:00:13.457Z,6.74
2023-01-15T12:01:13.402Z,6.77
2023-01-15T12:02:13.444Z,6.95
2023-01-15T12:03:13.455Z,7.03
2023-01-15T12:04:13.452Z,6.87
2023-01-15T12:05:13.404Z,6.82
2023-01-15T12:06:14.299Z,6.75
2023-01-15T12:07:13.430Z,6.85
2023-01-15T12:08:13.363Z,6.79
2023-01-15T12:09:13.361Z,6.72
2023-01-15T12:10:13.392Z,6.87
2023-01-15T12:11:25.842Z,6.81
2023-01-15T12:12:15.355Z,6.74
2023-01-15T12:13:13.335Z,6.70
2023-01-15T12:14:13.315Z,6.62
2023-01-15T12:15:13.298Z,6.60
2023-01-15T12:16:13.341Z,6.60
2023-01-15T12:17:13.335Z,6.63
2023-01-15T12:18:13.322Z,6.70
2023-01-15T12:19:13.272Z,6.84
2023-01-15T12:20:13.309Z,6.89
2023-01-15T12:21:13.290Z,6.84
2023-01-15T12:22:13.306Z,6.81
2023-01-15T12:23:13.311Z,6.75
2023-01-15T12:24:13.270Z,6.70
2023-01-15T12:25:13.248Z,6.64
2023-01-15T12:26:13.226Z,6.64
2023-01-15T12:27:13.237Z,6.56
2023-01-15T12:28:13.235Z,6.62
2023-01-15T12:29:13.257Z,6.59
2023-01-15T12:30:13.212Z,6.44
2023-01-15T12:31:13.309Z,6.41
2023-01-15T12:32:15.783Z,6.41
2023-01-15T12:33:13.277Z,6.51
2023-01-15T12:34:13.170Z,6.46
2023-01-15T12:35:13.175Z,6.46
2023-01-15T12:36:13.207Z,6.51
2023-01-15T12:37:13.152Z,6.38
2023-01-15T12:38:13.178Z,6.38
2023-01-15T12:39:13.169Z,6.35
2023-01-15T12:40:13.211Z,6.30
2023-01-15T12:41:13.123Z,6.38
2023-01-15T12:42:13.134Z,6.36
2023-01-15T12:43:13.097Z,6.41
2023-01-15T12:44:13.119Z,6.44
2023-01-15T12:45:13.077Z,6.46
2023-01-15T12:46:13.140Z,6.54
2023-01-15T12:47:13.061Z,6.64
2023-01-15T12:48:13.064Z,6.60
2023-01-15T12:49:13.067Z,6.62
2023-01-15T12:50:13.105Z,6.62
2023-01-15T12:51:13.059Z,6.79
2023-01-15T12:52:13.051Z,6.75
2023-01-15T12:53:13.062Z,6.82
2023-01-15T12:54:13.016Z,6.93
2023-01-15T12:55:13.075Z,6.96
2023-01-15T12:56:13.004Z,6.89
2023-01-15T12:57:44.937Z,6.92
2023-01-15T12:58:13.852Z,6.89
2023-01-15T12:59:13.037Z,6.95
2023-01-15T13:00:45.020Z,7.00
2023-01-15T13:01:45.004Z,6.97
2023-01-15T13:02:13.009Z,7.10
2023-01-15T13:03:13.028Z,7.15
2023-01-15T13:04:12.949Z,7.14
2023-01-15T13:05:12.977Z,7.10
2023-01-15T13:06:12.968Z,6.96
2023-01-15T13:07:12.947Z,6.99
2023-01-15T13:08:12.951Z,6.97
2023-01-15T13:09:13.926Z,6.96
2023-01-15T13:10:12.958Z,6.89
2023-01-15T13:11:44.850Z,7.06
2023-01-15T13:12:12.908Z,6.93
2023-01-15T13:13:12.891Z,6.89
2023-01-15T13:14:12.877Z,6.87
2023-01-15T13:15:12.857Z,7.05
2023-01-15T13:16:44.782Z,7.06
2023-01-15T13:17:12.860Z,7.00
2023-01-15T13:18:12.852Z,6.93
2023-01-15T13:19:12.859Z,6.93
2023-01-15T13:20:13.464Z,6.93
2023-01-15T13:21:12.808Z,7.02
2023-01-15T13:22:13.881Z,6.99
2023-01-15T13:23:12.802Z,6.93
2023-01-15T13:24:12.820Z,6.84
2023-01-15T13:25:12.787Z,6.75
2023-01-15T13:26:12.798Z,6.92
2023-01-15T13:27:12.791Z,6.77
2023-01-15T13:28:12.829Z,6.70
2023-01-15T13:29:12.768Z,6.69
2023-01-15T13:30:12.767Z,6.77